sensor_id;sensor_type;location;lat;lon;timestamp;P1;durP1;ratioP1;P2;durP2;ratioP2
11761;SDS011;5938;47.098;15.474;2023-04-15T00:02:56;4.33;;;3.93;;
11761;SDS011;5938;47.098;15.474;2023-04-15T00:07:01;3.73;;;3.43;;
11761;SDS011;5938;47.098;15.474;2023-04-15T00:11:05;4.03;;;3.57;;
11761;SDS011;5938;47.098;15.474;2023-04-15T00:15:09;4.43;;;3.77;;
11761;SDS011;5938;47.098;15.474;2023-04-15T00:19:12;3.83;;;3.43;;
11761;SDS011;5938;47.098;15.474;2023-04-15T00:23:16;3.73;;;3.43;;
11761;SDS011;5938;47.098;15.474;2023-04-15T00:27:20;5.57;;;4.50;;
11761;SDS011;5938;47.098;15.474;2023-04-15T00:31:24;4.83;;;4.37;;
11761;SDS011;5938;47.098;15.474;2023-04-15T00:35:27;7.17;;;4.10;;
11761;SDS011;5938;47.098;15.474;2023-04-15T00:39:33;4.30;;;3.90;;
11761;SDS011;5938;47.098;15.474;2023-04-15T00:43:38;4.77;;;4.13;;
11761;SDS011;5938;47.098;15.474;2023-04-15T00:47:42;6.10;;;4.70;;
11761;SDS011;5938;47.098;15.474;2023-04-15T00:51:46;5.30;;;4.43;;
11761;SDS011;5938;47.098;15.474;2023-04-15T00:55:49;4.53;;;4.13;;
11761;SDS011;5938;47.098;15.474;2023-04-15T00:59:54;4.30;;;3.80;;
11761;SDS011;5938;47.098;15.474;2023-04-15T01:03:57;6.17;;;3.97;;
11761;SDS011;5938;47.098;15.474;2023-04-15T01:08:02;4.50;;;3.90;;
11761;SDS011;5938;47.098;15.474;2023-04-15T01:12:05;3.83;;;3.53;;
11761;SDS011;5938;47.098;15.474;2023-04-15T01:16:10;4.17;;;3.30;;
11761;SDS011;5938;47.098;15.474;2023-04-15T01:20:14;5.00;;;4.50;;
11761;SDS011;5938;47.098;15.474;2023-04-15T01:24:18;5.80;;;4.40;;
11761;SDS011;5938;47.098;15.474;2023-04-15T01:28:28;3.97;;;3.60;;
11761;SDS011;5938;47.098;15.474;2023-04-15T01:32:32;4.00;;;3.70;;
11761;SDS011;5938;47.098;15.474;2023-04-15T01:36:36;5.00;;;3.70;;
11761;SDS011;5938;47.098;15.474;2023-04-15T01:40:39;4.50;;;3.93;;
11761;SDS011;5938;47.098;15.474;2023-04-15T01:44:44;3.33;;;3.00;;
11761;SDS011;5938;47.098;15.474;2023-04-15T01:48:47;4.13;;;3.60;;
11761;SDS011;5938;47.098;15.474;2023-04-15T01:52:51;4.67;;;4.13;;
11761;SDS011;5938;47.098;15.474;2023-04-15T01:56:54;5.77;;;4.37;;
11761;SDS011;5938;47.098;15.474;2023-04-15T02:00:59;4.20;;;3.80;;
11761;SDS011;5938;47.098;15.474;2023-04-15T02:05:03;3.40;;;3.10;;
11761;SDS011;5938;47.098;15.474;2023-04-15T02:09:07;4.10;;;3.60;;
11761;SDS011;5938;47.098;15.474;2023-04-15T02:13:11;3.83;;;3.37;;
11761;SDS011;5938;47.098;15.474;2023-04-15T02:17:15;4.40;;;4.00;;
11761;SDS011;5938;47.098;15.474;2023-04-15T02:21:21;5.50;;;4.50;;
11761;SDS011;5938;47.098;15.474;2023-04-15T02:25:24;5.17;;;4.20;;
11761;SDS011;5938;47.098;15.474;2023-04-15T02:29:27;5.00;;;4.00;;
11761;SDS011;5938;47.098;15.474;2023-04-15T02:33:32;5.40;;;4.70;;
11761;SDS011;5938;47.098;15.474;2023-04-15T02:37:36;7.23;;;3.80;;
11761;SDS011;5938;47.098;15.474;2023-04-15T02:41:44;5.63;;;4.70;;
11761;SDS011;5938;47.098;15.474;2023-04-15T02:45:52;4.17;;;3.67;;
11761;SDS011;5938;47.098;15.474;2023-04-15T02:49:56;5.03;;;4.53;;
11761;SDS011;5938;47.098;15.474;2023-04-15T02:54:02;4.40;;;4.00;;
11761;SDS011;5938;47.098;15.474;2023-04-15T02:58:05;4.30;;;3.90;;
11761;SDS011;5938;47.098;15.474;2023-04-15T03:02:08;4.17;;;3.50;;
11761;SDS011;5938;47.098;15.474;2023-04-15T03:06:13;4.60;;;4.20;;
11761;SDS011;5938;47.098;15.474;2023-04-15T03:10:17;4.67;;;3.67;;
11761;SDS011;5938;47.098;15.474;2023-04-15T03:14:20;4.67;;;4.27;;
11761;SDS011;5938;47.098;15.474;2023-04-15T03:18:23;4.43;;;4.03;;
11761;SDS011;5938;47.098;15.474;2023-04-15T03:22:28;4.60;;;3.80;;
11761;SDS011;5938;47.098;15.474;2023-04-15T03:26:31;4.33;;;3.70;;
11761;SDS011;5938;47.098;15.474;2023-04-15T03:30:34;4.20;;;3.77;;
11761;SDS011;5938;47.098;15.474;2023-04-15T03:34:38;5.83;;;5.20;;
11761;SDS011;5938;47.098;15.474;2023-04-15T03:38:42;4.63;;;4.23;;
11761;SDS011;5938;47.098;15.474;2023-04-15T03:42:46;4.30;;;3.90;;
11761;SDS011;5938;47.098;15.474;2023-04-15T03:46:49;5.77;;;5.03;;
11761;SDS011;5938;47.098;15.474;2023-04-15T03:50:52;7.03;;;3.83;;
11761;SDS011;5938;47.098;15.474;2023-04-15T03:54:57;4.07;;;3.73;;
11761;SDS011;5938;47.098;15.474;2023-04-15T03:59:00;6.37;;;5.47;;
11761;SDS011;5938;47.098;15.474;2023-04-15T04:03:04;6.20;;;5.60;;
11761;SDS011;5938;47.098;15.474;2023-04-15T04:07:07;5.33;;;4.83;;
11761;SDS011;5938;47.098;15.474;2023-04-15T04:11:17;6.47;;;5.80;;
11761;SDS011;5938;47.098;15.474;2023-04-15T04:15:21;6.30;;;5.63;;
11761;SDS011;5938;47.098;15.474;2023-04-15T04:19:24;7.17;;;6.37;;
11761;SDS011;5938;47.098;15.474;2023-04-15T04:23:28;6.90;;;5.70;;
11761;SDS011;5938;47.098;15.474;2023-04-15T04:27:33;6.80;;;5.77;;
11761;SDS011;5938;47.098;15.474;2023-04-15T04:31:36;9.00;;;6.20;;
11761;SDS011;5938;47.098;15.474;2023-04-15T04:35:40;9.90;;;5.07;;
11761;SDS011;5938;47.098;15.474;2023-04-15T04:39:43;7.40;;;6.70;;
11761;SDS011;5938;47.098;15.474;2023-04-15T04:43:49;7.30;;;6.60;;
11761;SDS011;5938;47.098;15.474;2023-04-15T04:47:52;6.83;;;6.13;;
11761;SDS011;5938;47.098;15.474;2023-04-15T04:51:56;8.27;;;6.17;;
11761;SDS011;5938;47.098;15.474;2023-04-15T04:55:59;6.83;;;6.13;;
11761;SDS011;5938;47.098;15.474;2023-04-15T05:00:08;11.63;;;8.90;;
11761;SDS011;5938;47.098;15.474;2023-04-15T05:04:13;8.73;;;7.27;;
11761;SDS011;5938;47.098;15.474;2023-04-15T05:08:16;11.53;;;8.33;;
11761;SDS011;5938;47.098;15.474;2023-04-15T05:12:20;8.07;;;7.23;;
11761;SDS011;5938;47.098;15.474;2023-04-15T05:16:25;8.63;;;6.83;;
11761;SDS011;5938;47.098;15.474;2023-04-15T05:20:28;9.43;;;5.90;;
11761;SDS011;5938;47.098;15.474;2023-04-15T05:24:31;9.93;;;8.10;;
11761;SDS011;5938;47.098;15.474;2023-04-15T05:28:34;8.13;;;6.60;;
11761;SDS011;5938;47.098;15.474;2023-04-15T05:32:39;8.73;;;7.13;;
11761;SDS011;5938;47.098;15.474;2023-04-15T05:36:43;7.30;;;6.00;;
11761;SDS011;5938;47.098;15.474;2023-04-15T05:40:46;7.43;;;6.53;;
11761;SDS011;5938;47.098;15.474;2023-04-15T05:44:49;7.27;;;6.13;;
11761;SDS011;5938;47.098;15.474;2023-04-15T05:48:54;7.80;;;7.03;;
11761;SDS011;5938;47.098;15.474;2023-04-15T05:52:57;7.60;;;6.80;;
11761;SDS011;5938;47.098;15.474;2023-04-15T05:57:01;8.93;;;7.77;;
11761;SDS011;5938;47.098;15.474;2023-04-15T06:01:04;8.40;;;7.00;;
11761;SDS011;5938;47.098;15.474;2023-04-15T06:05:09;8.87;;;7.10;;
11761;SDS011;5938;47.098;15.474;2023-04-15T06:09:12;6.80;;;6.00;;
11761;SDS011;5938;47.098;15.474;2023-04-15T06:13:15;8.10;;;7.30;;
11761;SDS011;5938;47.098;15.474;2023-04-15T06:17:19;9.13;;;8.03;;
11761;SDS011;5938;47.098;15.474;2023-04-15T06:21:23;7.80;;;6.93;;
11761;SDS011;5938;47.098;15.474;2023-04-15T06:25:27;9.53;;;8.00;;
11761;SDS011;5938;47.098;15.474;2023-04-15T06:29:30;7.47;;;6.67;;
11761;SDS011;5938;47.098;15.474;2023-04-15T06:33:33;7.23;;;6.53;;
11761;SDS011;5938;47.098;15.474;2023-04-15T06:37:38;11.27;;;10.27;;
11761;SDS011;5938;47.098;15.474;2023-04-15T06:41:41;10.60;;;9.60;;
11761;SDS011;5938;47.098;15.474;2023-04-15T06:45:45;7.70;;;6.90;;
11761;SDS011;5938;47.098;15.474;2023-04-15T06:49:48;8.17;;;7.33;;
11761;SDS011;5938;47.098;15.474;2023-04-15T06:53:54;7.83;;;6.63;;
11761;SDS011;5938;47.098;15.474;2023-04-15T06:57:59;8.80;;;7.90;;
11761;SDS011;5938;47.098;15.474;2023-04-15T07:02:03;8.10;;;7.30;;
11761;SDS011;5938;47.098;15.474;2023-04-15T07:06:07;6.93;;;6.33;;
11761;SDS011;5938;47.098;15.474;2023-04-15T07:10:13;7.00;;;6.27;;
11761;SDS011;5938;47.098;15.474;2023-04-15T07:14:16;7.27;;;6.23;;
11761;SDS011;5938;47.098;15.474;2023-04-15T07:18:20;5.73;;;5.20;;
11761;SDS011;5938;47.098;15.474;2023-04-15T07:22:24;7.30;;;6.60;;
11761;SDS011;5938;47.098;15.474;2023-04-15T07:26:29;5.60;;;4.60;;
11761;SDS011;5938;47.098;15.474;2023-04-15T07:30:32;4.57;;;4.17;;
11761;SDS011;5938;47.098;15.474;2023-04-15T07:34:39;5.60;;;5.10;;
11761;SDS011;5938;47.098;15.474;2023-04-15T07:38:47;7.87;;;4.63;;
11761;SDS011;5938;47.098;15.474;2023-04-15T07:42:56;6.00;;;5.50;;
11761;SDS011;5938;47.098;15.474;2023-04-15T07:46:59;5.97;;;5.47;;
11761;SDS011;5938;47.098;15.474;2023-04-15T07:51:04;6.70;;;6.10;;
11761;SDS011;5938;47.098;15.474;2023-04-15T07:55:08;6.43;;;5.80;;
11761;SDS011;5938;47.098;15.474;2023-04-15T07:59:14;6.43;;;5.83;;
11761;SDS011;5938;47.098;15.474;2023-04-15T08:03:20;6.03;;;5.47;;
11761;SDS011;5938;47.098;15.474;2023-04-15T08:07:24;6.57;;;5.97;;
11761;SDS011;5938;47.098;15.474;2023-04-15T08:11:29;7.20;;;6.50;;
11761;SDS011;5938;47.098;15.474;2023-04-15T08:15:33;6.53;;;5.93;;
11761;SDS011;5938;47.098;15.474;2023-04-15T08:19:39;4.77;;;4.37;;
11761;SDS011;5938;47.098;15.474;2023-04-15T08:23:43;7.03;;;6.43;;
11761;SDS011;5938;47.098;15.474;2023-04-15T08:27:46;6.37;;;4.20;;
11761;SDS011;5938;47.098;15.474;2023-04-15T08:31:51;4.23;;;3.93;;
11761;SDS011;5938;47.098;15.474;2023-04-15T08:35:56;4.37;;;4.00;;
11761;SDS011;5938;47.098;15.474;2023-04-15T08:39:59;14.53;;;7.93;;
11761;SDS011;5938;47.098;15.474;2023-04-15T08:44:03;14.67;;;10.40;;
11761;SDS011;5938;47.098;15.474;2023-04-15T08:48:10;7.20;;;3.83;;
11761;SDS011;5938;47.098;15.474;2023-04-15T08:52:19;4.50;;;4.20;;
11761;SDS011;5938;47.098;15.474;2023-04-15T08:56:31;6.20;;;3.90;;
11761;SDS011;5938;47.098;15.474;2023-04-15T09:00:40;3.60;;;3.37;;
11761;SDS011;5938;47.098;15.474;2023-04-15T09:04:47;3.03;;;2.83;;
11761;SDS011;5938;47.098;15.474;2023-04-15T09:08:52;3.53;;;3.23;;
11761;SDS011;5938;47.098;15.474;2023-04-15T09:12:57;3.50;;;3.30;;
11761;SDS011;5938;47.098;15.474;2023-04-15T09:17:02;3.20;;;2.93;;
11761;SDS011;5938;47.098;15.474;2023-04-15T09:21:09;2.93;;;2.50;;
11761;SDS011;5938;47.098;15.474;2023-04-15T09:25:27;2.70;;;2.50;;
11761;SDS011;5938;47.098;15.474;2023-04-15T09:29:35;2.90;;;2.70;;
11761;SDS011;5938;47.098;15.474;2023-04-15T09:33:53;2.63;;;2.43;;
11761;SDS011;5938;47.098;15.474;2023-04-15T09:38:02;3.13;;;2.93;;
11761;SDS011;5938;47.098;15.474;2023-04-15T09:42:08;8.60;;;3.00;;
11761;SDS011;5938;47.098;15.474;2023-04-15T09:46:12;2.97;;;2.67;;
11761;SDS011;5938;47.098;15.474;2023-04-15T09:50:17;3.10;;;2.80;;
11761;SDS011;5938;47.098;15.474;2023-04-15T09:54:22;3.20;;;2.87;;
11761;SDS011;5938;47.098;15.474;2023-04-15T09:58:26;2.87;;;2.40;;
11761;SDS011;5938;47.098;15.474;2023-04-15T10:02:31;2.37;;;2.27;;
11761;SDS011;5938;47.098;15.474;2023-04-15T10:06:35;2.93;;;2.57;;
11761;SDS011;5938;47.098;15.474;2023-04-15T10:10:41;3.07;;;2.87;;
11761;SDS011;5938;47.098;15.474;2023-04-15T10:14:46;2.73;;;2.50;;
11761;SDS011;5938;47.098;15.474;2023-04-15T10:18:54;2.83;;;2.63;;
11761;SDS011;5938;47.098;15.474;2023-04-15T10:23:07;3.07;;;2.87;;
11761;SDS011;5938;47.098;15.474;2023-04-15T10:27:15;2.80;;;2.60;;
11761;SDS011;5938;47.098;15.474;2023-04-15T10:31:19;3.00;;;2.73;;
11761;SDS011;5938;47.098;15.474;2023-04-15T10:35:24;2.80;;;2.60;;
11761;SDS011;5938;47.098;15.474;2023-04-15T10:39:39;3.10;;;2.80;;
11761;SDS011;5938;47.098;15.474;2023-04-15T10:43:47;3.10;;;2.80;;
11761;SDS011;5938;47.098;15.474;2023-04-15T10:47:54;2.40;;;2.30;;
11761;SDS011;5938;47.098;15.474;2023-04-15T10:52:00;3.13;;;2.40;;
11761;SDS011;5938;47.098;15.474;2023-04-15T10:56:04;2.93;;;2.73;;
11761;SDS011;5938;47.098;15.474;2023-04-15T11:00:10;3.10;;;2.90;;
11761;SDS011;5938;47.098;15.474;2023-04-15T11:04:19;2.93;;;2.63;;
11761;SDS011;5938;47.098;15.474;2023-04-15T11:08:54;3.50;;;3.20;;
11761;SDS011;5938;47.098;15.474;2023-04-15T11:13:00;2.90;;;2.70;;
11761;SDS011;5938;47.098;15.474;2023-04-15T11:17:06;2.87;;;2.67;;
11761;SDS011;5938;47.098;15.474;2023-04-15T11:21:10;2.50;;;2.23;;
11761;SDS011;5938;47.098;15.474;2023-04-15T11:25:21;2.80;;;2.60;;
11761;SDS011;5938;47.098;15.474;2023-04-15T11:29:27;2.90;;;2.70;;
11761;SDS011;5938;47.098;15.474;2023-04-15T11:33:34;2.87;;;2.67;;
11761;SDS011;5938;47.098;15.474;2023-04-15T11:37:37;3.50;;;3.00;;
11761;SDS011;5938;47.098;15.474;2023-04-15T11:41:42;2.90;;;2.70;;
11761;SDS011;5938;47.098;15.474;2023-04-15T11:45:50;3.87;;;2.20;;
11761;SDS011;5938;47.098;15.474;2023-04-15T11:49:56;3.60;;;3.30;;
11761;SDS011;5938;47.098;15.474;2023-04-15T11:54:02;3.33;;;2.83;;
11761;SDS011;5938;47.098;15.474;2023-04-15T11:58:07;2.70;;;2.50;;
11761;SDS011;5938;47.098;15.474;2023-04-15T12:02:13;3.30;;;2.60;;
11761;SDS011;5938;47.098;15.474;2023-04-15T12:06:19;5.43;;;2.27;;
11761;SDS011;5938;47.098;15.474;2023-04-15T12:10:24;3.20;;;2.60;;
11761;SDS011;5938;47.098;15.474;2023-04-15T12:14:28;4.77;;;2.67;;
11761;SDS011;5938;47.098;15.474;2023-04-15T12:18:32;2.30;;;2.10;;
11761;SDS011;5938;47.098;15.474;2023-04-15T12:22:41;2.53;;;2.10;;
11761;SDS011;5938;47.098;15.474;2023-04-15T12:26:45;3.83;;;2.53;;
11761;SDS011;5938;47.098;15.474;2023-04-15T12:30:51;2.83;;;2.63;;
11761;SDS011;5938;47.098;15.474;2023-04-15T12:34:54;3.40;;;3.10;;
11761;SDS011;5938;47.098;15.474;2023-04-15T12:39:00;2.60;;;2.40;;
11761;SDS011;5938;47.098;15.474;2023-04-15T12:43:05;3.10;;;2.80;;
11761;SDS011;5938;47.098;15.474;2023-04-15T12:47:09;2.50;;;2.30;;
11761;SDS011;5938;47.098;15.474;2023-04-15T12:51:13;3.50;;;3.20;;
11761;SDS011;5938;47.098;15.474;2023-04-15T12:55:19;2.27;;;2.07;;
11761;SDS011;5938;47.098;15.474;2023-04-15T12:59:24;2.93;;;2.70;;
11761;SDS011;5938;47.098;15.474;2023-04-15T13:03:27;2.47;;;2.27;;
11761;SDS011;5938;47.098;15.474;2023-04-15T13:07:31;3.80;;;3.23;;
11761;SDS011;5938;47.098;15.474;2023-04-15T13:11:36;3.40;;;3.10;;
11761;SDS011;5938;47.098;15.474;2023-04-15T13:15:40;4.47;;;4.07;;
11761;SDS011;5938;47.098;15.474;2023-04-15T13:19:46;2.87;;;2.67;;
11761;SDS011;5938;47.098;15.474;2023-04-15T13:23:50;5.00;;;3.03;;
11761;SDS011;5938;47.098;15.474;2023-04-15T13:27:55;3.20;;;3.00;;
11761;SDS011;5938;47.098;15.474;2023-04-15T13:31:59;3.90;;;3.10;;
11761;SDS011;5938;47.098;15.474;2023-04-15T13:36:02;2.60;;;2.50;;
11761;SDS011;5938;47.098;15.474;2023-04-15T13:40:07;2.53;;;2.33;;
11761;SDS011;5938;47.098;15.474;2023-04-15T13:44:13;2.73;;;2.50;;
11761;SDS011;5938;47.098;15.474;2023-04-15T13:48:16;3.97;;;2.70;;
11761;SDS011;5938;47.098;15.474;2023-04-15T13:52:20;7.60;;;5.30;;
11761;SDS011;5938;47.098;15.474;2023-04-15T13:56:24;2.60;;;2.40;;
11761;SDS011;5938;47.098;15.474;2023-04-15T14:00:29;4.20;;;2.60;;
11761;SDS011;5938;47.098;15.474;2023-04-15T14:04:32;6.37;;;5.87;;
11761;SDS011;5938;47.098;15.474;2023-04-15T14:08:36;4.03;;;3.60;;
11761;SDS011;5938;47.098;15.474;2023-04-15T14:12:40;3.83;;;2.80;;
11761;SDS011;5938;47.098;15.474;2023-04-15T14:16:45;4.23;;;3.00;;
11761;SDS011;5938;47.098;15.474;2023-04-15T14:20:48;2.90;;;2.60;;
11761;SDS011;5938;47.098;15.474;2023-04-15T14:24:51;3.13;;;2.93;;
11761;SDS011;5938;47.098;15.474;2023-04-15T14:28:56;3.07;;;2.80;;
11761;SDS011;5938;47.098;15.474;2023-04-15T14:33:01;3.00;;;2.80;;
11761;SDS011;5938;47.098;15.474;2023-04-15T14:37:04;4.43;;;3.23;;
11761;SDS011;5938;47.098;15.474;2023-04-15T14:41:08;4.10;;;3.30;;
11761;SDS011;5938;47.098;15.474;2023-04-15T14:45:12;3.53;;;2.90;;
11761;SDS011;5938;47.098;15.474;2023-04-15T14:49:17;3.10;;;2.80;;
11761;SDS011;5938;47.098;15.474;2023-04-15T14:53:21;2.77;;;2.33;;
11761;SDS011;5938;47.098;15.474;2023-04-15T14:57:24;3.70;;;3.10;;
11761;SDS011;5938;47.098;15.474;2023-04-15T15:01:28;4.70;;;3.57;;
11761;SDS011;5938;47.098;15.474;2023-04-15T15:05:33;3.07;;;2.70;;
11761;SDS011;5938;47.098;15.474;2023-04-15T15:09:36;3.90;;;3.60;;
11761;SDS011;5938;47.098;15.474;2023-04-15T15:13:40;4.40;;;3.57;;
11761;SDS011;5938;47.098;15.474;2023-04-15T15:17:43;4.07;;;3.53;;
11761;SDS011;5938;47.098;15.474;2023-04-15T15:21:48;2.63;;;2.30;;
11761;SDS011;5938;47.098;15.474;2023-04-15T15:25:51;2.70;;;2.50;;
11761;SDS011;5938;47.098;15.474;2023-04-15T15:29:55;2.40;;;2.20;;
11761;SDS011;5938;47.098;15.474;2023-04-15T15:34:00;3.47;;;2.33;;
11761;SDS011;5938;47.098;15.474;2023-04-15T15:38:07;5.07;;;4.10;;
11761;SDS011;5938;47.098;15.474;2023-04-15T15:42:12;5.50;;;3.97;;
11761;SDS011;5938;47.098;15.474;2023-04-15T15:46:16;5.67;;;5.17;;
11761;SDS011;5938;47.098;15.474;2023-04-15T15:50:19;4.23;;;3.90;;
11761;SDS011;5938;47.098;15.474;2023-04-15T15:54:24;3.30;;;2.73;;
11761;SDS011;5938;47.098;15.474;2023-04-15T15:58:28;4.87;;;3.80;;
11761;SDS011;5938;47.098;15.474;2023-04-15T16:02:32;4.00;;;3.70;;
11761;SDS011;5938;47.098;15.474;2023-04-15T16:06:56;3.60;;;3.30;;
11761;SDS011;5938;47.098;15.474;2023-04-15T16:11:00;5.47;;;3.97;;
11761;SDS011;5938;47.098;15.474;2023-04-15T16:15:05;5.10;;;4.60;;
11761;SDS011;5938;47.098;15.474;2023-04-15T16:19:09;4.60;;;4.20;;
11761;SDS011;5938;47.098;15.474;2023-04-15T16:23:14;3.80;;;3.27;;
11761;SDS011;5938;47.098;15.474;2023-04-15T16:27:20;4.07;;;3.77;;
11761;SDS011;5938;47.098;15.474;2023-04-15T16:31:24;5.60;;;5.10;;
11761;SDS011;5938;47.098;15.474;2023-04-15T16:35:27;4.63;;;4.23;;
11761;SDS011;5938;47.098;15.474;2023-04-15T16:39:33;4.30;;;4.00;;
11761;SDS011;5938;47.098;15.474;2023-04-15T16:43:38;3.50;;;3.20;;
11761;SDS011;5938;47.098;15.474;2023-04-15T16:47:42;2.97;;;2.50;;
11761;SDS011;5938;47.098;15.474;2023-04-15T16:51:45;3.40;;;3.10;;
11761;SDS011;5938;47.098;15.474;2023-04-15T16:55:49;2.87;;;2.67;;
11761;SDS011;5938;47.098;15.474;2023-04-15T16:59:54;3.63;;;3.33;;
11761;SDS011;5938;47.098;15.474;2023-04-15T17:03:58;3.20;;;2.90;;
11761;SDS011;5938;47.098;15.474;2023-04-15T17:08:03;3.13;;;2.83;;
11761;SDS011;5938;47.098;15.474;2023-04-15T17:12:06;3.60;;;3.10;;
11761;SDS011;5938;47.098;15.474;2023-04-15T17:16:13;3.77;;;3.47;;
11761;SDS011;5938;47.098;15.474;2023-04-15T17:20:16;5.67;;;3.40;;
11761;SDS011;5938;47.098;15.474;2023-04-15T17:24:20;3.27;;;2.97;;
11761;SDS011;5938;47.098;15.474;2023-04-15T17:28:24;4.20;;;3.80;;
11761;SDS011;5938;47.098;15.474;2023-04-15T17:32:29;4.33;;;4.03;;
11761;SDS011;5938;47.098;15.474;2023-04-15T17:36:35;5.60;;;5.10;;
11761;SDS011;5938;47.098;15.474;2023-04-15T17:40:39;9.63;;;6.77;;
11761;SDS011;5938;47.098;15.474;2023-04-15T17:44:43;5.57;;;5.00;;
11761;SDS011;5938;47.098;15.474;2023-04-15T17:48:52;6.53;;;5.13;;
11761;SDS011;5938;47.098;15.474;2023-04-15T17:52:57;5.90;;;4.37;;
11761;SDS011;5938;47.098;15.474;2023-04-15T17:57:05;5.00;;;4.47;;
11761;SDS011;5938;47.098;15.474;2023-04-15T18:01:15;5.07;;;3.80;;
11761;SDS011;5938;47.098;15.474;2023-04-15T18:05:31;5.30;;;4.80;;
11761;SDS011;5938;47.098;15.474;2023-04-15T18:09:37;8.33;;;4.90;;
11761;SDS011;5938;47.098;15.474;2023-04-15T18:13:42;5.73;;;5.23;;
11761;SDS011;5938;47.098;15.474;2023-04-15T18:17:48;17.50;;;5.23;;
11761;SDS011;5938;47.098;15.474;2023-04-15T18:21:54;4.77;;;4.37;;
11761;SDS011;5938;47.098;15.474;2023-04-15T18:26:03;5.30;;;4.77;;
11761;SDS011;5938;47.098;15.474;2023-04-15T18:30:11;14.33;;;11.40;;
11761;SDS011;5938;47.098;15.474;2023-04-15T18:34:17;38.60;;;23.40;;
11761;SDS011;5938;47.098;15.474;2023-04-15T18:38:23;66.00;;;34.80;;
11761;SDS011;5938;47.098;15.474;2023-04-15T18:42:31;26.70;;;19.93;;
11761;SDS011;5938;47.098;15.474;2023-04-15T18:46:41;12.90;;;11.07;;
11761;SDS011;5938;47.098;15.474;2023-04-15T18:51:00;9.83;;;8.70;;
11761;SDS011;5938;47.098;15.474;2023-04-15T18:55:12;12.23;;;10.97;;
11761;SDS011;5938;47.098;15.474;2023-04-15T18:59:20;24.27;;;15.00;;
11761;SDS011;5938;47.098;15.474;2023-04-15T19:03:31;20.30;;;13.20;;
11761;SDS011;5938;47.098;15.474;2023-04-15T19:07:38;16.50;;;10.73;;
11761;SDS011;5938;47.098;15.474;2023-04-15T19:11:45;12.60;;;8.97;;
11761;SDS011;5938;47.098;15.474;2023-04-15T19:15:50;14.10;;;9.23;;
11761;SDS011;5938;47.098;15.474;2023-04-15T19:19:56;11.83;;;7.97;;
11761;SDS011;5938;47.098;15.474;2023-04-15T19:24:06;14.60;;;10.03;;
11761;SDS011;5938;47.098;15.474;2023-04-15T19:28:41;11.37;;;9.23;;
11761;SDS011;5938;47.098;15.474;2023-04-15T19:32:49;9.47;;;7.60;;
11761;SDS011;5938;47.098;15.474;2023-04-15T19:37:00;6.80;;;6.00;;
11761;SDS011;5938;47.098;15.474;2023-04-15T19:41:07;6.80;;;6.20;;
11761;SDS011;5938;47.098;15.474;2023-04-15T19:45:26;9.83;;;8.33;;
11761;SDS011;5938;47.098;15.474;2023-04-15T19:49:37;5.90;;;5.30;;
11761;SDS011;5938;47.098;15.474;2023-04-15T19:53:47;12.63;;;9.23;;
11761;SDS011;5938;47.098;15.474;2023-04-15T19:57:55;10.77;;;8.73;;
11761;SDS011;5938;47.098;15.474;2023-04-15T20:02:03;17.20;;;10.10;;
11761;SDS011;5938;47.098;15.474;2023-04-15T20:06:12;11.07;;;8.80;;
11761;SDS011;5938;47.098;15.474;2023-04-15T20:10:20;7.50;;;6.57;;
11761;SDS011;5938;47.098;15.474;2023-04-15T20:14:25;6.37;;;5.77;;
11761;SDS011;5938;47.098;15.474;2023-04-15T20:18:31;6.03;;;5.47;;
11761;SDS011;5938;47.098;15.474;2023-04-15T20:22:34;10.80;;;5.17;;
11761;SDS011;5938;47.098;15.474;2023-04-15T20:26:38;5.10;;;4.70;;
11761;SDS011;5938;47.098;15.474;2023-04-15T20:30:42;9.00;;;5.40;;
11761;SDS011;5938;47.098;15.474;2023-04-15T20:34:47;5.37;;;4.47;;
11761;SDS011;5938;47.098;15.474;2023-04-15T20:38:53;5.60;;;4.77;;
11761;SDS011;5938;47.098;15.474;2023-04-15T20:42:57;7.47;;;4.70;;
11761;SDS011;5938;47.098;15.474;2023-04-15T20:47:01;4.80;;;4.40;;
11761;SDS011;5938;47.098;15.474;2023-04-15T20:51:07;5.90;;;5.40;;
11761;SDS011;5938;47.098;15.474;2023-04-15T20:55:11;4.80;;;4.27;;
11761;SDS011;5938;47.098;15.474;2023-04-15T20:59:15;6.30;;;4.30;;
11761;SDS011;5938;47.098;15.474;2023-04-15T21:03:19;5.90;;;3.80;;
11761;SDS011;5938;47.098;15.474;2023-04-15T21:07:24;5.00;;;4.07;;
11761;SDS011;5938;47.098;15.474;2023-04-15T21:11:28;3.93;;;3.53;;
11761;SDS011;5938;47.098;15.474;2023-04-15T21:15:52;8.03;;;3.47;;
11761;SDS011;5938;47.098;15.474;2023-04-15T21:19:55;5.63;;;4.07;;
11761;SDS011;5938;47.098;15.474;2023-04-15T21:24:01;6.07;;;4.40;;
11761;SDS011;5938;47.098;15.474;2023-04-15T21:28:07;4.13;;;3.83;;
11761;SDS011;5938;47.098;15.474;2023-04-15T21:32:10;5.27;;;4.77;;
11761;SDS011;5938;47.098;15.474;2023-04-15T21:36:14;6.23;;;5.10;;
11761;SDS011;5938;47.098;15.474;2023-04-15T21:40:19;5.20;;;4.50;;
11761;SDS011;5938;47.098;15.474;2023-04-15T21:44:22;10.37;;;4.93;;
11761;SDS011;5938;47.098;15.474;2023-04-15T21:48:26;4.87;;;4.20;;
11761;SDS011;5938;47.098;15.474;2023-04-15T21:52:29;5.90;;;4.63;;
11761;SDS011;5938;47.098;15.474;2023-04-15T21:56:34;6.03;;;5.50;;
11761;SDS011;5938;47.098;15.474;2023-04-15T22:00:38;11.23;;;5.53;;
11761;SDS011;5938;47.098;15.474;2023-04-15T22:04:41;5.97;;;5.00;;
11761;SDS011;5938;47.098;15.474;2023-04-15T22:08:45;7.37;;;5.20;;
11761;SDS011;5938;47.098;15.474;2023-04-15T22:13:09;6.83;;;3.10;;
11761;SDS011;5938;47.098;15.474;2023-04-15T22:17:13;4.27;;;3.23;;
11761;SDS011;5938;47.098;15.474;2023-04-15T22:21:16;3.47;;;3.17;;
11761;SDS011;5938;47.098;15.474;2023-04-15T22:25:20;4.10;;;3.63;;
11761;SDS011;5938;47.098;15.474;2023-04-15T22:29:24;4.47;;;4.07;;
11761;SDS011;5938;47.098;15.474;2023-04-15T22:33:28;5.53;;;3.83;;
11761;SDS011;5938;47.098;15.474;2023-04-15T22:37:31;4.43;;;4.03;;
11761;SDS011;5938;47.098;15.474;2023-04-15T22:41:34;5.23;;;4.73;;
11761;SDS011;5938;47.098;15.474;2023-04-15T22:45:39;4.70;;;4.30;;
11761;SDS011;5938;47.098;15.474;2023-04-15T22:49:42;3.73;;;2.93;;
11761;SDS011;5938;47.098;15.474;2023-04-15T22:53:46;3.97;;;3.60;;
11761;SDS011;5938;47.098;15.474;2023-04-15T22:57:49;3.70;;;3.40;;
11761;SDS011;5938;47.098;15.474;2023-04-15T23:01:54;4.93;;;4.30;;
11761;SDS011;5938;47.098;15.474;2023-04-15T23:05:58;4.10;;;3.80;;
11761;SDS011;5938;47.098;15.474;2023-04-15T23:10:01;4.07;;;3.77;;
11761;SDS011;5938;47.098;15.474;2023-04-15T23:14:05;5.07;;;4.40;;
11761;SDS011;5938;47.098;15.474;2023-04-15T23:18:10;3.90;;;3.60;;
11761;SDS011;5938;47.098;15.474;2023-04-15T23:22:14;4.80;;;4.33;;
11761;SDS011;5938;47.098;15.474;2023-04-15T23:26:17;5.20;;;4.50;;
11761;SDS011;5938;47.098;15.474;2023-04-15T23:30:20;4.60;;;4.10;;
11761;SDS011;5938;47.098;15.474;2023-04-15T23:34:25;5.93;;;5.13;;
11761;SDS011;5938;47.098;15.474;2023-04-15T23:38:28;6.00;;;4.80;;
11761;SDS011;5938;47.098;15.474;2023-04-15T23:42:31;6.63;;;4.27;;
11761;SDS011;5938;47.098;15.474;2023-04-15T23:46:35;5.10;;;4.60;;
11761;SDS011;5938;47.098;15.474;2023-04-15T23:50:39;5.73;;;3.90;;
11761;SDS011;5938;47.098;15.474;2023-04-15T23:54:43;6.10;;;5.53;;
11761;SDS011;5938;47.098;15.474;2023-04-15T23:58:46;6.23;;;4.67;;
